createdAt,value
2017-11-16T00:00:39.765Z,10.40
2017-11-16T00:03:07.840Z,9.93
2017-11-16T00:05:36.702Z,10.00
2017-11-16T00:08:04.776Z,9.23
2017-11-16T00:10:32.873Z,8.90
2017-11-16T00:13:00.948Z,9.43
2017-11-16T00:15:29.040Z,9.27
2017-11-16T00:17:57.157Z,9.07
2017-11-16T00:20:25.257Z,8.77
2017-11-16T00:22:53.340Z,8.30
2017-11-16T00:25:22.213Z,10.03
2017-11-16T00:27:50.297Z,8.60
2017-11-16T00:30:18.472Z,8.10
2017-11-16T00:32:47.369Z,8.80
2017-11-16T00:35:16.276Z,8.30
2017-11-16T00:37:44.376Z,9.23
2017-11-16T00:40:12.579Z,8.13
2017-11-16T00:42:40.660Z,9.37
2017-11-16T00:45:08.767Z,9.10
2017-11-16T00:47:36.892Z,9.33
2017-11-16T00:50:05.003Z,9.30
2017-11-16T00:52:34.581Z,8.13
2017-11-16T00:55:02.985Z,8.97
2017-11-16T00:57:31.844Z,9.60
2017-11-16T01:00:00.020Z,9.20
2017-11-16T01:02:28.115Z,9.50
2017-11-16T01:04:56.993Z,9.30
2017-11-16T01:07:25.089Z,9.00
2017-11-16T01:09:53.157Z,9.50
2017-11-16T01:12:21.999Z,8.80
2017-11-16T01:14:50.116Z,9.23
2017-11-16T01:17:18.192Z,9.97
2017-11-16T01:19:46.423Z,8.67
2017-11-16T01:22:14.492Z,9.80
2017-11-16T01:24:42.593Z,9.33
2017-11-16T01:27:10.912Z,10.27
2017-11-16T01:29:39.013Z,9.87
2017-11-16T01:32:07.195Z,9.90
2017-11-16T01:34:35.363Z,10.20
2017-11-16T01:37:03.574Z,9.00
2017-11-16T01:39:32.642Z,10.20
2017-11-16T01:42:00.780Z,10.10
2017-11-16T01:44:29.688Z,9.07
2017-11-16T01:46:58.153Z,9.30
2017-11-16T01:49:26.232Z,9.37
2017-11-16T01:51:55.088Z,9.90
2017-11-16T01:54:24.400Z,8.50
2017-11-16T01:56:52.576Z,9.20
2017-11-16T01:59:21.777Z,9.43
2017-11-16T02:01:49.988Z,9.17
2017-11-16T02:04:18.173Z,9.20
2017-11-16T02:06:46.412Z,9.23
2017-11-16T02:09:14.583Z,8.93
2017-11-16T02:11:42.703Z,9.10
2017-11-16T02:14:10.774Z,8.77
2017-11-16T02:16:40.516Z,9.77
2017-11-16T02:19:09.609Z,10.50
2017-11-16T02:21:37.681Z,9.80
2017-11-16T02:24:06.544Z,10.37
2017-11-16T02:26:34.945Z,9.37
2017-11-16T02:29:03.784Z,9.80
2017-11-16T02:31:32.012Z,10.40
2017-11-16T02:34:00.869Z,10.20
2017-11-16T02:36:28.946Z,9.20
2017-11-16T02:38:57.040Z,9.27
2017-11-16T02:41:25.157Z,10.80
2017-11-16T02:43:54.353Z,10.00
2017-11-16T02:46:22.429Z,9.10
2017-11-16T02:48:51.834Z,9.27
2017-11-16T02:51:20.052Z,8.87
2017-11-16T02:53:49.217Z,9.73
2017-11-16T02:56:17.305Z,10.57
2017-11-16T02:58:45.524Z,9.30
2017-11-16T03:01:14.413Z,10.23
2017-11-16T03:03:43.319Z,9.00
2017-11-16T03:06:11.415Z,9.67
2017-11-16T03:08:39.503Z,10.43
2017-11-16T03:11:07.623Z,9.73
2017-11-16T03:13:36.455Z,9.70
2017-11-16T03:16:04.557Z,9.13
2017-11-16T03:18:32.648Z,9.27
2017-11-16T03:21:01.774Z,9.60
2017-11-16T03:23:30.343Z,8.90
2017-11-16T03:25:58.420Z,10.33
2017-11-16T03:28:26.613Z,10.37
2017-11-16T03:30:54.690Z,9.10
2017-11-16T03:33:23.548Z,10.07
2017-11-16T03:35:51.728Z,10.00
2017-11-16T03:38:19.798Z,9.57
2017-11-16T03:40:47.994Z,9.93
2017-11-16T03:43:16.237Z,8.43
2017-11-16T03:45:45.145Z,9.53
2017-11-16T03:48:13.286Z,9.77
2017-11-16T03:50:41.590Z,10.17
2017-11-16T03:53:10.359Z,10.87
2017-11-16T03:55:39.385Z,9.20
2017-11-16T03:58:07.969Z,10.60
2017-11-16T04:00:36.101Z,10.70
2017-11-16T04:03:04.177Z,10.40
2017-11-16T04:05:32.745Z,9.70
2017-11-16T04:08:01.660Z,10.30
2017-11-16T04:10:30.638Z,11.00
2017-11-16T04:12:59.477Z,9.90
2017-11-16T04:15:27.570Z,10.50
2017-11-16T04:17:55.680Z,10.70
2017-11-16T04:20:23.800Z,12.50
2017-11-16T04:22:51.917Z,10.60
2017-11-16T04:25:20.031Z,10.80
2017-11-16T04:27:48.109Z,11.27
2017-11-16T04:30:16.215Z,11.33
2017-11-16T04:32:44.315Z,10.67
2017-11-16T04:35:12.416Z,11.20
2017-11-16T04:37:42.094Z,10.60
2017-11-16T04:40:10.169Z,12.17
2017-11-16T04:42:39.029Z,9.83
2017-11-16T04:45:07.100Z,9.73
2017-11-16T04:47:35.229Z,11.67
2017-11-16T04:50:03.534Z,11.93
2017-11-16T04:52:32.254Z,12.23
2017-11-16T04:55:02.841Z,13.30
2017-11-16T04:57:30.941Z,12.60
2017-11-16T04:59:59.017Z,11.60
2017-11-16T05:02:27.151Z,11.87
2017-11-16T05:04:55.904Z,12.50
2017-11-16T05:07:24.758Z,12.73
2017-11-16T05:09:52.862Z,12.43
2017-11-16T05:12:20.942Z,12.30
2017-11-16T05:14:49.017Z,12.70
2017-11-16T05:17:17.880Z,14.10
2017-11-16T05:19:45.955Z,12.40
2017-11-16T05:22:14.824Z,12.40
2017-11-16T05:24:42.943Z,13.00
2017-11-16T05:27:11.021Z,12.73
2017-11-16T05:29:39.939Z,13.07
2017-11-16T05:32:08.033Z,14.27
2017-11-16T05:34:36.125Z,13.77
2017-11-16T05:37:04.200Z,13.40
2017-11-16T05:39:32.333Z,13.47
2017-11-16T05:42:00.410Z,13.50
2017-11-16T05:44:28.516Z,12.73
2017-11-16T05:46:56.917Z,13.50
2017-11-16T05:49:25.769Z,13.07
2017-11-16T05:51:53.875Z,14.53
2017-11-16T05:54:22.750Z,14.57
2017-11-16T05:56:51.669Z,13.50
2017-11-16T05:59:20.852Z,13.23
2017-11-16T06:01:48.982Z,15.60
2017-11-16T06:04:17.061Z,14.43
2017-11-16T06:06:45.696Z,14.33
2017-11-16T06:09:14.568Z,13.27
2017-11-16T06:11:42.649Z,13.50
2017-11-16T06:14:11.517Z,13.83
2017-11-16T06:16:39.597Z,15.37
2017-11-16T06:19:07.688Z,14.67
2017-11-16T06:21:36.572Z,15.10
2017-11-16T06:24:05.472Z,13.47
2017-11-16T06:26:34.308Z,13.50
2017-11-16T06:29:02.430Z,14.53
2017-11-16T06:31:30.560Z,15.37
2017-11-16T06:33:58.636Z,14.20
2017-11-16T06:36:26.737Z,14.00
2017-11-16T06:38:54.816Z,13.20
2017-11-16T06:41:23.685Z,14.60
2017-11-16T06:43:51.812Z,15.07
2017-11-16T06:46:19.891Z,14.50
2017-11-16T06:48:48.182Z,13.67
2017-11-16T06:51:16.265Z,20.20
2017-11-16T06:53:44.379Z,14.97
2017-11-16T06:56:12.492Z,15.50
2017-11-16T06:58:40.569Z,15.23
2017-11-16T07:01:08.673Z,15.97
2017-11-16T07:03:37.540Z,15.60
2017-11-16T07:06:05.624Z,15.00
2017-11-16T07:08:33.747Z,16.50
2017-11-16T07:11:01.840Z,15.60
2017-11-16T07:13:30.284Z,16.30
2017-11-16T07:15:59.173Z,15.70
2017-11-16T07:18:28.020Z,14.60
2017-11-16T07:20:56.152Z,15.60
2017-11-16T07:23:24.250Z,15.60
2017-11-16T07:25:52.442Z,16.37
2017-11-16T07:28:20.548Z,19.13
2017-11-16T07:30:49.464Z,25.90
2017-11-16T07:33:17.549Z,20.53
2017-11-16T07:35:45.661Z,20.60
2017-11-16T07:38:13.745Z,18.27
2017-11-16T07:40:46.452Z,17.60
2017-11-16T07:43:15.318Z,19.57
2017-11-16T07:45:43.425Z,16.57
2017-11-16T07:48:11.540Z,15.93
2017-11-16T07:50:39.629Z,17.70
2017-11-16T07:53:07.712Z,22.50
2017-11-16T07:55:35.797Z,18.13
2017-11-16T07:58:03.916Z,17.27
2017-11-16T08:00:32.382Z,18.50
2017-11-16T08:03:00.489Z,17.03
2017-11-16T08:05:28.596Z,18.63
2017-11-16T08:07:57.432Z,17.70
2017-11-16T08:10:25.549Z,17.73
2017-11-16T08:12:54.445Z,17.70
2017-11-16T08:15:23.331Z,18.60
2017-11-16T08:17:51.421Z,17.73
2017-11-16T08:20:19.516Z,19.57
2017-11-16T08:22:47.635Z,17.67
2017-11-16T08:25:15.716Z,19.90
2017-11-16T08:27:43.832Z,19.27
2017-11-16T08:30:11.930Z,19.50
2017-11-16T08:32:40.145Z,18.67
2017-11-16T08:35:08.221Z,18.23
2017-11-16T08:37:37.066Z,18.63
2017-11-16T08:40:05.181Z,19.97
2017-11-16T08:42:34.024Z,21.07
2017-11-16T08:45:02.267Z,21.67
2017-11-16T08:47:30.369Z,23.47
2017-11-16T08:49:58.480Z,21.93
2017-11-16T08:52:26.552Z,19.20
2017-11-16T08:54:54.664Z,19.83
2017-11-16T08:57:22.793Z,20.67
2017-11-16T08:59:50.884Z,19.23
2017-11-16T09:02:18.994Z,18.77
2017-11-16T09:04:47.116Z,18.90
2017-11-16T09:07:15.263Z,21.77
2017-11-16T09:09:43.669Z,19.93
2017-11-16T09:12:12.009Z,20.43
2017-11-16T09:14:40.085Z,20.60
2017-11-16T09:17:08.294Z,22.43
2017-11-16T09:19:36.391Z,21.60
2017-11-16T09:22:04.473Z,20.07
2017-11-16T09:24:32.594Z,19.50
2017-11-16T09:27:00.703Z,68.37
2017-11-16T09:29:28.776Z,24.40
2017-11-16T09:31:56.912Z,23.63
2017-11-16T09:34:25.835Z,21.23
2017-11-16T09:36:54.734Z,21.40
2017-11-16T09:39:22.848Z,19.80
2017-11-16T09:41:50.940Z,21.90
2017-11-16T09:44:19.034Z,22.30
2017-11-16T09:46:47.911Z,21.87
2017-11-16T09:49:16.005Z,20.00
2017-11-16T09:51:44.156Z,22.13
2017-11-16T09:54:12.254Z,21.00
2017-11-16T09:56:41.138Z,22.03
2017-11-16T09:59:10.117Z,21.77
2017-11-16T10:01:38.199Z,21.93
2017-11-16T10:04:06.502Z,20.47
2017-11-16T10:06:34.621Z,21.47
2017-11-16T10:09:02.848Z,21.27
2017-11-16T10:11:32.060Z,21.47
2017-11-16T10:14:00.277Z,23.10
2017-11-16T10:16:29.176Z,23.13
2017-11-16T10:18:57.244Z,34.83
2017-11-16T10:21:25.337Z,26.60
2017-11-16T10:23:53.492Z,23.77
2017-11-16T10:26:21.590Z,20.33
2017-11-16T10:28:50.462Z,21.93
2017-11-16T10:31:19.326Z,21.00
2017-11-16T10:33:47.453Z,21.67
2017-11-16T10:36:15.631Z,22.20
2017-11-16T10:38:43.795Z,20.00
2017-11-16T10:41:11.920Z,20.93
2017-11-16T10:43:40.214Z,22.40
2017-11-16T10:46:08.317Z,22.10
2017-11-16T10:48:36.407Z,18.80
2017-11-16T10:51:04.526Z,18.70
2017-11-16T10:53:32.675Z,20.17
2017-11-16T10:56:00.784Z,19.20
2017-11-16T10:58:28.892Z,18.43
2017-11-16T11:00:57.022Z,20.43
2017-11-16T11:03:25.114Z,20.30
2017-11-16T11:05:53.205Z,18.87
2017-11-16T11:08:21.297Z,19.90
2017-11-16T11:10:49.380Z,19.73
2017-11-16T11:13:18.272Z,19.03
2017-11-16T11:15:46.404Z,19.53
2017-11-16T11:18:14.528Z,18.33
2017-11-16T11:20:42.681Z,19.67
2017-11-16T11:23:10.759Z,19.37
2017-11-16T11:25:38.908Z,18.97
2017-11-16T11:28:06.981Z,19.97
2017-11-16T11:30:35.077Z,18.70
2017-11-16T11:33:03.180Z,20.03
2017-11-16T11:35:31.291Z,19.03
2017-11-16T11:38:00.138Z,17.57
2017-11-16T11:40:29.094Z,16.40
2017-11-16T11:42:57.977Z,16.83
2017-11-16T11:45:26.338Z,16.83
2017-11-16T11:47:54.495Z,17.30
2017-11-16T11:50:23.356Z,16.57
2017-11-16T11:52:51.463Z,15.80
2017-11-16T11:55:20.356Z,18.53
2017-11-16T11:57:49.230Z,18.17
2017-11-16T12:00:17.363Z,17.73
2017-11-16T12:02:45.533Z,16.80
2017-11-16T12:05:13.645Z,16.97
2017-11-16T12:07:42.399Z,16.50
2017-11-16T12:10:10.526Z,16.77
2017-11-16T12:12:39.429Z,16.40
2017-11-16T12:15:07.537Z,16.20
2017-11-16T12:17:35.800Z,16.00
2017-11-16T12:20:03.913Z,15.90
2017-11-16T12:22:32.010Z,15.33
2017-11-16T12:25:00.859Z,16.00
2017-11-16T12:27:28.951Z,16.43
2017-11-16T12:29:57.043Z,16.97
2017-11-16T12:32:25.141Z,14.80
2017-11-16T12:34:53.237Z,16.53
2017-11-16T12:37:21.341Z,16.97
2017-11-16T12:39:49.422Z,16.20
2017-11-16T12:42:18.283Z,17.07
2017-11-16T12:44:46.373Z,15.97
2017-11-16T12:47:15.018Z,17.20
2017-11-16T12:49:43.097Z,17.20
2017-11-16T12:52:12.136Z,16.47
2017-11-16T12:54:40.266Z,15.97
2017-11-16T12:57:08.361Z,15.47
2017-11-16T12:59:36.456Z,17.30
2017-11-16T13:02:04.533Z,17.77
2017-11-16T13:04:33.401Z,15.60
2017-11-16T13:07:01.521Z,15.87
2017-11-16T13:09:29.689Z,16.70
2017-11-16T13:11:57.812Z,18.10
2017-11-16T13:14:25.965Z,17.00
2017-11-16T13:16:54.057Z,16.50
2017-11-16T13:19:22.142Z,18.43
2017-11-16T13:21:50.362Z,18.33
2017-11-16T13:24:18.908Z,17.50
2017-11-16T13:26:46.997Z,18.10
2017-11-16T13:29:15.151Z,17.57
2017-11-16T13:31:43.228Z,16.23
2017-11-16T13:34:11.335Z,18.07
2017-11-16T13:36:39.410Z,18.40
2017-11-16T13:39:07.548Z,17.57
2017-11-16T13:41:35.636Z,17.07
2017-11-16T13:44:04.521Z,17.67
2017-11-16T13:46:32.688Z,18.17
2017-11-16T13:49:00.757Z,17.80
2017-11-16T13:51:29.581Z,19.10
2017-11-16T13:53:57.708Z,16.07
2017-11-16T13:56:25.846Z,18.50
2017-11-16T13:58:53.924Z,17.43
2017-11-16T14:01:22.024Z,17.90
2017-11-16T14:03:51.213Z,17.57
2017-11-16T14:06:19.299Z,17.53
2017-11-16T14:08:48.097Z,16.10
2017-11-16T14:11:16.175Z,16.67
2017-11-16T14:13:44.300Z,16.20
2017-11-16T14:16:12.369Z,15.43
2017-11-16T14:18:40.441Z,17.07
2017-11-16T14:21:08.573Z,16.53
2017-11-16T14:23:37.440Z,15.70
2017-11-16T14:26:05.537Z,15.37
2017-11-16T14:28:34.390Z,17.87
2017-11-16T14:31:02.462Z,16.33
2017-11-16T14:33:30.561Z,16.03
2017-11-16T14:35:58.633Z,16.37
2017-11-16T14:38:26.768Z,14.73
2017-11-16T14:40:54.961Z,15.93
2017-11-16T14:43:23.064Z,15.07
2017-11-16T14:45:51.921Z,13.60
2017-11-16T14:48:20.013Z,15.00
2017-11-16T14:50:48.106Z,15.70
2017-11-16T14:53:16.209Z,14.40
2017-11-16T14:55:44.305Z,15.60
2017-11-16T14:58:12.406Z,16.27
2017-11-16T15:00:40.524Z,16.60
2017-11-16T15:03:08.626Z,16.60
2017-11-16T15:05:36.706Z,16.97
2017-11-16T15:08:04.805Z,16.47
2017-11-16T15:10:32.914Z,17.17
2017-11-16T15:13:01.040Z,18.60
2017-11-16T15:15:29.918Z,17.10
2017-11-16T15:17:58.005Z,16.87
2017-11-16T15:20:26.849Z,17.30
2017-11-16T15:22:54.937Z,17.90
2017-11-16T15:25:23.006Z,15.83
2017-11-16T15:27:51.102Z,18.57
2017-11-16T15:30:19.226Z,16.63
2017-11-16T15:32:48.509Z,17.37
2017-11-16T15:35:16.601Z,15.90
2017-11-16T15:37:44.707Z,16.77
2017-11-16T15:40:12.815Z,16.57
2017-11-16T15:42:41.677Z,16.27
2017-11-16T15:45:09.779Z,16.97
2017-11-16T15:47:37.889Z,15.70
2017-11-16T15:50:06.010Z,16.97
2017-11-16T15:52:34.097Z,17.37
2017-11-16T15:55:02.226Z,17.40
2017-11-16T15:57:30.469Z,17.90
2017-11-16T15:59:58.786Z,15.97
2017-11-16T16:02:27.166Z,17.27
2017-11-16T16:04:55.268Z,16.30
2017-11-16T16:07:23.394Z,18.33
2017-11-16T16:09:51.570Z,17.53
2017-11-16T16:12:19.680Z,15.73
2017-11-16T16:14:48.528Z,17.30
2017-11-16T16:17:16.645Z,16.67
2017-11-16T16:19:45.522Z,16.37
2017-11-16T16:22:14.107Z,15.97
2017-11-16T16:24:42.208Z,15.10
2017-11-16T16:27:10.357Z,16.00
2017-11-16T16:29:38.717Z,16.17
2017-11-16T16:32:06.813Z,13.47
2017-11-16T16:34:35.657Z,13.80
2017-11-16T16:37:03.761Z,13.30
2017-11-16T16:39:31.849Z,13.87
2017-11-16T16:41:59.949Z,13.43
2017-11-16T16:44:28.148Z,13.97
2017-11-16T16:46:57.025Z,14.50
2017-11-16T16:49:25.140Z,14.17
2017-11-16T16:51:53.244Z,14.50
2017-11-16T16:54:21.356Z,15.57
2017-11-16T16:56:49.453Z,13.87
2017-11-16T16:59:17.550Z,13.50
2017-11-16T17:01:46.422Z,13.70
2017-11-16T17:04:14.949Z,13.40
2017-11-16T17:06:44.035Z,13.77
2017-11-16T17:09:12.133Z,14.03
2017-11-16T17:11:40.232Z,13.63
2017-11-16T17:14:08.331Z,20.03
2017-11-16T17:16:37.186Z,17.93
2017-11-16T17:19:05.289Z,14.20
2017-11-16T17:21:34.152Z,18.07
2017-11-16T17:24:02.305Z,18.93
2017-11-16T17:26:30.441Z,15.97
2017-11-16T17:28:59.284Z,13.73
2017-11-16T17:31:27.396Z,14.33
2017-11-16T17:33:56.274Z,14.27
2017-11-16T17:36:24.409Z,14.87
2017-11-16T17:38:52.509Z,16.23
2017-11-16T17:41:20.601Z,13.90
2017-11-16T17:43:49.493Z,14.80
2017-11-16T17:46:17.586Z,16.40
2017-11-16T17:48:45.656Z,15.53
2017-11-16T17:51:13.760Z,14.27
2017-11-16T17:53:41.830Z,13.83
2017-11-16T17:56:09.933Z,13.37
2017-11-16T17:58:38.016Z,16.10
2017-11-16T18:01:06.504Z,13.97
2017-11-16T18:03:34.607Z,14.43
2017-11-16T18:06:02.981Z,14.37
2017-11-16T18:08:31.060Z,15.13
2017-11-16T18:10:59.764Z,15.00
2017-11-16T18:13:28.230Z,15.70
2017-11-16T18:15:56.359Z,15.87
2017-11-16T18:18:24.453Z,14.20
2017-11-16T18:20:53.485Z,14.10
2017-11-16T18:23:21.578Z,16.23
2017-11-16T18:25:50.285Z,17.40
2017-11-16T18:28:18.463Z,14.03
2017-11-16T18:30:47.016Z,15.60
2017-11-16T18:33:15.157Z,14.47
2017-11-16T18:35:43.282Z,13.37
2017-11-16T18:38:12.329Z,13.67
2017-11-16T18:40:41.034Z,14.83
2017-11-16T18:43:09.300Z,19.73
2017-11-16T18:45:38.182Z,21.97
2017-11-16T18:48:06.464Z,15.90
2017-11-16T18:50:34.532Z,14.40
2017-11-16T18:53:03.476Z,13.53
2017-11-16T18:55:31.655Z,14.67
2017-11-16T18:57:59.861Z,13.30
2017-11-16T19:00:27.972Z,15.07
2017-11-16T19:02:56.178Z,14.17
2017-11-16T19:05:25.083Z,14.50
2017-11-16T19:07:53.970Z,13.60
2017-11-16T19:10:22.871Z,13.07
2017-11-16T19:12:51.749Z,28.33
2017-11-16T19:15:20.709Z,16.90
2017-11-16T19:17:48.918Z,14.40
2017-11-16T19:20:17.087Z,14.57
2017-11-16T19:22:45.980Z,15.20
2017-11-16T19:25:14.856Z,13.23
2017-11-16T19:27:42.957Z,15.80
2017-11-16T19:30:11.064Z,14.77
2017-11-16T19:32:39.168Z,14.57
2017-11-16T19:35:07.369Z,15.23
2017-11-16T19:37:36.261Z,14.00
2017-11-16T19:40:04.424Z,14.57
2017-11-16T19:42:32.613Z,14.07
2017-11-16T19:45:01.497Z,15.90
2017-11-16T19:47:31.319Z,21.00
2017-11-16T19:49:59.466Z,17.00
2017-11-16T19:52:28.359Z,14.97
2017-11-16T19:54:56.505Z,14.03
2017-11-16T19:57:24.713Z,14.90
2017-11-16T19:59:53.596Z,14.60
2017-11-16T20:02:21.802Z,16.90
2017-11-16T20:04:49.959Z,15.20
2017-11-16T20:07:18.168Z,14.67
2017-11-16T20:09:46.273Z,15.93
2017-11-16T20:12:14.492Z,15.07
2017-11-16T20:14:42.581Z,16.63
2017-11-16T20:17:10.703Z,17.07
2017-11-16T20:19:38.790Z,15.47
2017-11-16T20:22:07.707Z,15.33
2017-11-16T20:24:35.977Z,14.43
2017-11-16T20:27:04.138Z,37.40
2017-11-16T20:29:32.366Z,20.00
2017-11-16T20:32:00.487Z,16.27
2017-11-16T20:34:28.685Z,15.57
2017-11-16T20:37:02.318Z,15.90
2017-11-16T20:39:45.552Z,15.70
2017-11-16T20:42:15.663Z,17.10
2017-11-16T20:44:49.420Z,16.10
2017-11-16T20:50:24.172Z,16.30
2017-11-16T20:52:56.132Z,17.57
2017-11-16T20:55:25.141Z,17.50
2017-11-16T20:57:53.381Z,16.10
2017-11-16T21:00:21.637Z,16.40
2017-11-16T21:02:49.732Z,17.83
2017-11-16T21:05:17.858Z,16.20
2017-11-16T21:07:45.973Z,16.27
2017-11-16T21:10:14.185Z,22.00
2017-11-16T21:12:42.345Z,28.70
2017-11-16T21:15:11.209Z,18.97
2017-11-16T21:17:40.310Z,17.53
2017-11-16T21:20:08.524Z,17.90
2017-11-16T21:22:36.613Z,18.20
2017-11-16T21:25:04.737Z,19.10
2017-11-16T21:27:32.843Z,16.47
2017-11-16T21:30:00.929Z,17.10
2017-11-16T21:32:29.013Z,18.60
2017-11-16T21:34:57.815Z,17.43
2017-11-16T21:37:25.929Z,36.13
2017-11-16T21:39:54.813Z,29.37
2017-11-16T21:42:23.704Z,22.40
2017-11-16T21:44:51.873Z,19.00
2017-11-16T21:47:20.720Z,18.43
2017-11-16T21:49:48.893Z,18.10
2017-11-16T21:52:17.304Z,17.37
2017-11-16T21:54:45.393Z,17.37
2017-11-16T21:57:14.246Z,17.47
2017-11-16T21:59:43.344Z,18.37
2017-11-16T22:02:11.430Z,17.20
2017-11-16T22:04:39.505Z,18.00
2017-11-16T22:07:07.616Z,18.03
2017-11-16T22:09:35.737Z,18.93
2017-11-16T22:12:03.821Z,17.83
2017-11-16T22:14:31.950Z,18.63
2017-11-16T22:17:00.025Z,17.30
2017-11-16T22:19:28.516Z,18.03
2017-11-16T22:21:56.601Z,17.00
2017-11-16T22:24:24.674Z,18.10
2017-11-16T22:26:52.932Z,18.77
2017-11-16T22:29:21.013Z,18.47
2017-11-16T22:31:49.277Z,17.37
2017-11-16T22:34:18.546Z,16.80
2017-11-16T22:36:46.622Z,17.37
2017-11-16T22:39:14.690Z,17.37
2017-11-16T22:41:43.598Z,19.40
2017-11-16T22:44:11.689Z,16.80
2017-11-16T22:46:39.849Z,18.47
2017-11-16T22:49:07.944Z,17.47
2017-11-16T22:51:36.024Z,21.13
2017-11-16T22:54:04.123Z,17.43
2017-11-16T22:56:32.996Z,18.00
2017-11-16T22:59:01.102Z,18.03
2017-11-16T23:01:29.259Z,18.20
2017-11-16T23:03:57.340Z,18.03
2017-11-16T23:06:26.180Z,18.97
2017-11-16T23:08:54.269Z,17.70
2017-11-16T23:11:22.385Z,16.93
2017-11-16T23:13:51.243Z,17.77
2017-11-16T23:16:19.337Z,20.07
2017-11-16T23:18:47.429Z,20.03
2017-11-16T23:21:15.521Z,18.93
2017-11-16T23:23:43.603Z,17.70
2017-11-16T23:26:11.904Z,17.43
2017-11-16T23:28:40.076Z,17.77
2017-11-16T23:31:08.177Z,17.43
2017-11-16T23:33:37.046Z,17.67
2017-11-16T23:36:05.157Z,17.30
2017-11-16T23:38:33.252Z,16.90
2017-11-16T23:41:01.354Z,18.60
2017-11-16T23:43:29.483Z,19.00
2017-11-16T23:45:57.569Z,17.53
2017-11-16T23:48:25.652Z,18.60
2017-11-16T23:50:53.760Z,18.60
2017-11-16T23:53:21.852Z,19.27
2017-11-16T23:55:50.836Z,19.60
2017-11-16T23:58:19.704Z,19.43
